sensor_id;sensor_type;location;lat;lon;timestamp;P1;durP1;ratioP1;P2;durP2;ratioP2
10497;SDS011;5296;51.060;13.750;2023-04-15T00:01:57;2.17;;;2.08;;
10497;SDS011;5296;51.060;13.750;2023-04-15T00:07:00;2.00;;;1.90;;
10497;SDS011;5296;51.060;13.750;2023-04-15T00:12:03;2.10;;;2.00;;
10497;SDS011;5296;51.060;13.750;2023-04-15T00:17:05;1.92;;;1.83;;
10497;SDS011;5296;51.060;13.750;2023-04-15T00:22:07;1.80;;;1.70;;
10497;SDS011;5296;51.060;13.750;2023-04-15T00:27:09;1.80;;;1.70;;
10497;SDS011;5296;51.060;13.750;2023-04-15T00:32:11;1.75;;;1.65;;
10497;SDS011;5296;51.060;13.750;2023-04-15T00:37:14;1.83;;;1.73;;
10497;SDS011;5296;51.060;13.750;2023-04-15T00:42:15;1.70;;;1.60;;
10497;SDS011;5296;51.060;13.750;2023-04-15T00:47:18;1.67;;;1.58;;
10497;SDS011;5296;51.060;13.750;2023-04-15T00:52:21;1.70;;;1.60;;
10497;SDS011;5296;51.060;13.750;2023-04-15T00:57:22;1.60;;;1.50;;
10497;SDS011;5296;51.060;13.750;2023-04-15T01:02:24;1.60;;;1.50;;
10497;SDS011;5296;51.060;13.750;2023-04-15T01:07:26;1.50;;;1.40;;
10497;SDS011;5296;51.060;13.750;2023-04-15T01:12:28;1.50;;;1.40;;
10497;SDS011;5296;51.060;13.750;2023-04-15T01:17:30;1.60;;;1.50;;
10497;SDS011;5296;51.060;13.750;2023-04-15T01:22:32;1.85;;;1.75;;
10497;SDS011;5296;51.060;13.750;2023-04-15T01:27:33;1.80;;;1.70;;
10497;SDS011;5296;51.060;13.750;2023-04-15T01:32:36;2.00;;;1.90;;
10497;SDS011;5296;51.060;13.750;2023-04-15T01:37:38;1.75;;;1.65;;
10497;SDS011;5296;51.060;13.750;2023-04-15T01:42:40;1.95;;;1.85;;
10497;SDS011;5296;51.060;13.750;2023-04-15T01:47:42;2.00;;;1.80;;
10497;SDS011;5296;51.060;13.750;2023-04-15T01:52:44;2.10;;;2.00;;
10497;SDS011;5296;51.060;13.750;2023-04-15T01:57:45;2.33;;;2.22;;
10497;SDS011;5296;51.060;13.750;2023-04-15T02:02:47;1.95;;;1.85;;
10497;SDS011;5296;51.060;13.750;2023-04-15T02:07:50;2.30;;;2.10;;
10497;SDS011;5296;51.060;13.750;2023-04-15T02:12:52;2.17;;;2.00;;
10497;SDS011;5296;51.060;13.750;2023-04-15T02:17:55;2.00;;;1.90;;
10497;SDS011;5296;51.060;13.750;2023-04-15T02:22:57;2.10;;;2.00;;
10497;SDS011;5296;51.060;13.750;2023-04-15T02:27:58;1.80;;;1.70;;
10497;SDS011;5296;51.060;13.750;2023-04-15T02:33:00;2.10;;;2.00;;
10497;SDS011;5296;51.060;13.750;2023-04-15T02:38:02;1.83;;;1.73;;
10497;SDS011;5296;51.060;13.750;2023-04-15T02:43:04;1.98;;;1.88;;
10497;SDS011;5296;51.060;13.750;2023-04-15T02:48:08;2.10;;;2.00;;
10497;SDS011;5296;51.060;13.750;2023-04-15T02:53:10;2.03;;;1.92;;
10497;SDS011;5296;51.060;13.750;2023-04-15T02:58:12;2.40;;;2.20;;
10497;SDS011;5296;51.060;13.750;2023-04-15T03:03:13;2.55;;;2.35;;
10497;SDS011;5296;51.060;13.750;2023-04-15T03:08:16;2.30;;;2.20;;
10497;SDS011;5296;51.060;13.750;2023-04-15T03:13:18;2.67;;;2.47;;
10497;SDS011;5296;51.060;13.750;2023-04-15T03:18:20;2.03;;;1.92;;
10497;SDS011;5296;51.060;13.750;2023-04-15T03:23:22;2.20;;;2.10;;
10497;SDS011;5296;51.060;13.750;2023-04-15T03:28:24;2.03;;;1.92;;
10497;SDS011;5296;51.060;13.750;2023-04-15T03:33:25;2.30;;;2.10;;
10497;SDS011;5296;51.060;13.750;2023-04-15T03:38:27;2.38;;;2.17;;
10497;SDS011;5296;51.060;13.750;2023-04-15T03:43:30;2.10;;;2.00;;
10497;SDS011;5296;51.060;13.750;2023-04-15T03:48:31;2.30;;;2.10;;
10497;SDS011;5296;51.060;13.750;2023-04-15T03:53:33;2.17;;;2.08;;
10497;SDS011;5296;51.060;13.750;2023-04-15T03:58:34;2.40;;;2.20;;
10497;SDS011;5296;51.060;13.750;2023-04-15T04:03:36;2.22;;;2.13;;
10497;SDS011;5296;51.060;13.750;2023-04-15T04:08:38;2.00;;;1.90;;
10497;SDS011;5296;51.060;13.750;2023-04-15T04:13:40;2.60;;;2.40;;
10497;SDS011;5296;51.060;13.750;2023-04-15T04:18:42;2.38;;;2.20;;
10497;SDS011;5296;51.060;13.750;2023-04-15T04:23:43;2.55;;;2.35;;
10497;SDS011;5296;51.060;13.750;2023-04-15T04:28:45;2.60;;;2.40;;
10497;SDS011;5296;51.060;13.750;2023-04-15T04:33:46;2.95;;;2.75;;
10497;SDS011;5296;51.060;13.750;2023-04-15T04:38:48;2.47;;;2.33;;
10497;SDS011;5296;51.060;13.750;2023-04-15T04:43:49;2.80;;;2.60;;
10497;SDS011;5296;51.060;13.750;2023-04-15T04:48:51;2.80;;;2.60;;
10497;SDS011;5296;51.060;13.750;2023-04-15T04:53:53;2.70;;;2.50;;
10497;SDS011;5296;51.060;13.750;2023-04-15T04:58:54;2.60;;;2.40;;
10497;SDS011;5296;51.060;13.750;2023-04-15T05:03:56;2.78;;;2.58;;
10497;SDS011;5296;51.060;13.750;2023-04-15T05:08:58;2.85;;;2.65;;
10497;SDS011;5296;51.060;13.750;2023-04-15T05:14:00;3.30;;;3.00;;
10497;SDS011;5296;51.060;13.750;2023-04-15T05:19:02;3.75;;;3.45;;
10497;SDS011;5296;51.060;13.750;2023-04-15T05:24:04;3.25;;;3.05;;
10497;SDS011;5296;51.060;13.750;2023-04-15T05:29:06;3.58;;;3.35;;
10497;SDS011;5296;51.060;13.750;2023-04-15T05:34:08;3.30;;;3.10;;
10497;SDS011;5296;51.060;13.750;2023-04-15T05:39:10;3.63;;;3.33;;
10497;SDS011;5296;51.060;13.750;2023-04-15T05:44:12;2.97;;;2.72;;
10497;SDS011;5296;51.060;13.750;2023-04-15T05:49:13;2.90;;;2.70;;
10497;SDS011;5296;51.060;13.750;2023-04-15T05:54:15;2.88;;;2.67;;
10497;SDS011;5296;51.060;13.750;2023-04-15T05:59:20;3.05;;;2.75;;
10497;SDS011;5296;51.060;13.750;2023-04-15T06:04:22;3.42;;;2.92;;
10497;SDS011;5296;51.060;13.750;2023-04-15T06:09:24;2.60;;;2.40;;
10497;SDS011;5296;51.060;13.750;2023-04-15T06:14:26;1.60;;;1.50;;
10497;SDS011;5296;51.060;13.750;2023-04-15T06:19:27;1.80;;;1.27;;
10497;SDS011;5296;51.060;13.750;2023-04-15T06:24:29;1.52;;;1.42;;
10497;SDS011;5296;51.060;13.750;2023-04-15T06:29:31;2.33;;;1.35;;
10497;SDS011;5296;51.060;13.750;2023-04-15T06:34:33;1.27;;;1.17;;
10497;SDS011;5296;51.060;13.750;2023-04-15T06:39:35;0.95;;;0.95;;
10497;SDS011;5296;51.060;13.750;2023-04-15T06:44:36;1.02;;;1.00;;
10497;SDS011;5296;51.060;13.750;2023-04-15T06:49:38;1.10;;;1.00;;
10497;SDS011;5296;51.060;13.750;2023-04-15T06:54:41;1.60;;;1.30;;
10497;SDS011;5296;51.060;13.750;2023-04-15T06:59:43;2.00;;;1.83;;
10497;SDS011;5296;51.060;13.750;2023-04-15T07:04:44;1.50;;;1.40;;
10497;SDS011;5296;51.060;13.750;2023-04-15T07:09:46;1.50;;;1.20;;
10497;SDS011;5296;51.060;13.750;2023-04-15T07:14:48;1.35;;;1.13;;
10497;SDS011;5296;51.060;13.750;2023-04-15T07:19:50;1.08;;;0.98;;
10497;SDS011;5296;51.060;13.750;2023-04-15T07:24:51;0.90;;;0.90;;
10497;SDS011;5296;51.060;13.750;2023-04-15T07:29:53;0.90;;;0.90;;
10497;SDS011;5296;51.060;13.750;2023-04-15T07:34:55;1.60;;;1.45;;
10497;SDS011;5296;51.060;13.750;2023-04-15T07:39:57;1.50;;;1.40;;
10497;SDS011;5296;51.060;13.750;2023-04-15T07:44:58;1.58;;;1.48;;
10497;SDS011;5296;51.060;13.750;2023-04-15T07:50:00;1.00;;;1.00;;
10497;SDS011;5296;51.060;13.750;2023-04-15T07:55:02;0.90;;;0.90;;
10497;SDS011;5296;51.060;13.750;2023-04-15T08:00:05;0.80;;;0.80;;
10497;SDS011;5296;51.060;13.750;2023-04-15T08:05:14;1.42;;;1.02;;
10497;SDS011;5296;51.060;13.750;2023-04-15T08:10:16;0.80;;;0.80;;
10497;SDS011;5296;51.060;13.750;2023-04-15T08:15:18;1.42;;;1.00;;
10497;SDS011;5296;51.060;13.750;2023-04-15T08:20:19;1.35;;;1.10;;
10497;SDS011;5296;51.060;13.750;2023-04-15T08:25:21;1.75;;;1.20;;
10497;SDS011;5296;51.060;13.750;2023-04-15T08:30:22;1.00;;;0.90;;
10497;SDS011;5296;51.060;13.750;2023-04-15T08:35:24;1.02;;;0.98;;
10497;SDS011;5296;51.060;13.750;2023-04-15T08:40:26;0.98;;;0.98;;
10497;SDS011;5296;51.060;13.750;2023-04-15T08:45:35;1.40;;;1.10;;
10497;SDS011;5296;51.060;13.750;2023-04-15T08:50:38;2.03;;;1.00;;
10497;SDS011;5296;51.060;13.750;2023-04-15T08:55:42;1.60;;;1.50;;
10497;SDS011;5296;51.060;13.750;2023-04-15T09:00:47;1.83;;;1.73;;
10497;SDS011;5296;51.060;13.750;2023-04-15T09:05:49;1.95;;;1.85;;
10497;SDS011;5296;51.060;13.750;2023-04-15T09:10:53;2.58;;;2.03;;
10497;SDS011;5296;51.060;13.750;2023-04-15T09:15:55;2.03;;;1.92;;
10497;SDS011;5296;51.060;13.750;2023-04-15T09:26:09;2.95;;;2.75;;
10497;SDS011;5296;51.060;13.750;2023-04-15T09:31:10;2.60;;;2.40;;
10497;SDS011;5296;51.060;13.750;2023-04-15T09:36:12;2.30;;;2.10;;
10497;SDS011;5296;51.060;13.750;2023-04-15T09:41:16;3.10;;;2.53;;
10497;SDS011;5296;51.060;13.750;2023-04-15T09:46:39;2.85;;;2.65;;
10497;SDS011;5296;51.060;13.750;2023-04-15T09:51:41;2.70;;;2.50;;
10497;SDS011;5296;51.060;13.750;2023-04-15T09:57:03;2.88;;;2.67;;
10497;SDS011;5296;51.060;13.750;2023-04-15T10:02:05;3.55;;;2.80;;
10497;SDS011;5296;51.060;13.750;2023-04-15T10:07:10;2.58;;;2.38;;
10497;SDS011;5296;51.060;13.750;2023-04-15T10:12:13;2.70;;;2.50;;
10497;SDS011;5296;51.060;13.750;2023-04-15T10:17:17;2.97;;;2.70;;
10497;SDS011;5296;51.060;13.750;2023-04-15T10:22:22;3.75;;;2.50;;
10497;SDS011;5296;51.060;13.750;2023-04-15T10:27:25;2.75;;;2.55;;
10497;SDS011;5296;51.060;13.750;2023-04-15T10:32:28;2.95;;;2.75;;
10497;SDS011;5296;51.060;13.750;2023-04-15T10:37:33;2.97;;;2.60;;
10497;SDS011;5296;51.060;13.750;2023-04-15T10:42:37;3.00;;;2.80;;
10497;SDS011;5296;51.060;13.750;2023-04-15T10:47:38;2.92;;;2.72;;
10497;SDS011;5296;51.060;13.750;2023-04-15T10:52:40;3.17;;;2.60;;
10497;SDS011;5296;51.060;13.750;2023-04-15T10:57:42;3.00;;;2.80;;
10497;SDS011;5296;51.060;13.750;2023-04-15T11:07:48;3.10;;;2.90;;
10497;SDS011;5296;51.060;13.750;2023-04-15T11:12:53;3.33;;;3.05;;
10497;SDS011;5296;51.060;13.750;2023-04-15T11:23:41;2.60;;;2.40;;
10497;SDS011;5296;51.060;13.750;2023-04-15T11:28:49;2.70;;;2.50;;
10497;SDS011;5296;51.060;13.750;2023-04-15T11:38:57;4.60;;;3.92;;
10497;SDS011;5296;51.060;13.750;2023-04-15T11:43:59;2.40;;;1.88;;
10497;SDS011;5296;51.060;13.750;2023-04-15T11:49:01;3.10;;;1.90;;
10497;SDS011;5296;51.060;13.750;2023-04-15T11:54:05;2.47;;;1.73;;
10497;SDS011;5296;51.060;13.750;2023-04-15T11:59:06;1.90;;;1.80;;
10497;SDS011;5296;51.060;13.750;2023-04-15T12:04:15;2.67;;;1.80;;
10497;SDS011;5296;51.060;13.750;2023-04-15T12:09:23;2.95;;;1.50;;
10497;SDS011;5296;51.060;13.750;2023-04-15T12:14:31;1.75;;;1.65;;
10497;SDS011;5296;51.060;13.750;2023-04-15T12:19:34;2.15;;;1.70;;
10497;SDS011;5296;51.060;13.750;2023-04-15T12:24:38;1.90;;;1.67;;
10497;SDS011;5296;51.060;13.750;2023-04-15T12:29:40;1.60;;;1.50;;
10497;SDS011;5296;51.060;13.750;2023-04-15T12:34:49;1.50;;;1.40;;
10497;SDS011;5296;51.060;13.750;2023-04-15T12:39:51;1.83;;;1.55;;
10497;SDS011;5296;51.060;13.750;2023-04-15T12:44:54;1.67;;;1.40;;
10497;SDS011;5296;51.060;13.750;2023-04-15T12:49:55;2.25;;;1.83;;
10497;SDS011;5296;51.060;13.750;2023-04-15T12:54:57;1.50;;;1.40;;
10497;SDS011;5296;51.060;13.750;2023-04-15T12:59:59;1.50;;;1.40;;
10497;SDS011;5296;51.060;13.750;2023-04-15T13:05:00;1.70;;;1.60;;
10497;SDS011;5296;51.060;13.750;2023-04-15T13:10:02;2.97;;;1.70;;
10497;SDS011;5296;51.060;13.750;2023-04-15T13:15:04;4.07;;;1.80;;
10497;SDS011;5296;51.060;13.750;2023-04-15T13:20:06;1.85;;;1.58;;
10497;SDS011;5296;51.060;13.750;2023-04-15T13:25:09;1.90;;;1.80;;
10497;SDS011;5296;51.060;13.750;2023-04-15T13:30:10;1.90;;;1.80;;
10497;SDS011;5296;51.060;13.750;2023-04-15T13:35:12;2.08;;;1.95;;
10497;SDS011;5296;51.060;13.750;2023-04-15T13:40:14;2.20;;;2.00;;
10497;SDS011;5296;51.060;13.750;2023-04-15T13:45:16;2.30;;;2.10;;
10497;SDS011;5296;51.060;13.750;2023-04-15T13:50:18;2.35;;;2.10;;
10497;SDS011;5296;51.060;13.750;2023-04-15T13:55:20;2.40;;;2.20;;
10497;SDS011;5296;51.060;13.750;2023-04-15T14:00:25;2.35;;;2.15;;
10497;SDS011;5296;51.060;13.750;2023-04-15T14:05:27;2.58;;;2.30;;
10497;SDS011;5296;51.060;13.750;2023-04-15T14:10:28;2.45;;;2.10;;
10497;SDS011;5296;51.060;13.750;2023-04-15T14:15:30;2.00;;;1.80;;
10497;SDS011;5296;51.060;13.750;2023-04-15T14:20:32;2.60;;;2.10;;
10497;SDS011;5296;51.060;13.750;2023-04-15T14:25:34;2.50;;;2.30;;
10497;SDS011;5296;51.060;13.750;2023-04-15T14:30:35;1.92;;;1.83;;
10497;SDS011;5296;51.060;13.750;2023-04-15T14:35:37;1.92;;;1.83;;
10497;SDS011;5296;51.060;13.750;2023-04-15T14:40:39;2.00;;;1.90;;
10497;SDS011;5296;51.060;13.750;2023-04-15T14:45:41;2.20;;;2.00;;
10497;SDS011;5296;51.060;13.750;2023-04-15T14:50:45;2.25;;;2.03;;
10497;SDS011;5296;51.060;13.750;2023-04-15T14:55:47;2.72;;;2.15;;
10497;SDS011;5296;51.060;13.750;2023-04-15T15:00:48;2.45;;;2.25;;
10497;SDS011;5296;51.060;13.750;2023-04-15T15:05:50;2.33;;;1.92;;
10497;SDS011;5296;51.060;13.750;2023-04-15T15:10:52;2.35;;;2.10;;
10497;SDS011;5296;51.060;13.750;2023-04-15T15:15:54;2.85;;;1.80;;
10497;SDS011;5296;51.060;13.750;2023-04-15T15:20:55;2.97;;;2.08;;
10497;SDS011;5296;51.060;13.750;2023-04-15T15:25:57;1.98;;;1.88;;
10497;SDS011;5296;51.060;13.750;2023-04-15T15:30:59;2.10;;;1.95;;
10497;SDS011;5296;51.060;13.750;2023-04-15T15:36:01;1.90;;;1.80;;
10497;SDS011;5296;51.060;13.750;2023-04-15T15:41:04;1.70;;;1.60;;
10497;SDS011;5296;51.060;13.750;2023-04-15T15:46:06;2.65;;;1.65;;
10497;SDS011;5296;51.060;13.750;2023-04-15T15:51:08;1.80;;;1.70;;
10497;SDS011;5296;51.060;13.750;2023-04-15T15:56:09;1.70;;;1.60;;
10497;SDS011;5296;51.060;13.750;2023-04-15T16:01:11;1.92;;;1.75;;
10497;SDS011;5296;51.060;13.750;2023-04-15T16:06:13;2.13;;;1.55;;
10497;SDS011;5296;51.060;13.750;2023-04-15T16:11:14;1.77;;;1.67;;
10497;SDS011;5296;51.060;13.750;2023-04-15T16:16:16;2.53;;;2.10;;
10497;SDS011;5296;51.060;13.750;2023-04-15T16:21:18;2.88;;;1.80;;
10497;SDS011;5296;51.060;13.750;2023-04-15T16:26:20;1.77;;;1.67;;
10497;SDS011;5296;51.060;13.750;2023-04-15T16:31:22;1.65;;;1.55;;
10497;SDS011;5296;51.060;13.750;2023-04-15T16:36:23;2.20;;;2.00;;
10497;SDS011;5296;51.060;13.750;2023-04-15T16:41:26;2.00;;;1.80;;
10497;SDS011;5296;51.060;13.750;2023-04-15T16:46:28;1.75;;;1.63;;
10497;SDS011;5296;51.060;13.750;2023-04-15T16:51:30;3.22;;;3.03;;
10497;SDS011;5296;51.060;13.750;2023-04-15T16:56:32;2.65;;;2.45;;
10497;SDS011;5296;51.060;13.750;2023-04-15T17:01:33;2.67;;;2.47;;
10497;SDS011;5296;51.060;13.750;2023-04-15T17:06:35;2.53;;;2.30;;
10497;SDS011;5296;51.060;13.750;2023-04-15T17:11:37;3.00;;;2.70;;
10497;SDS011;5296;51.060;13.750;2023-04-15T17:16:40;2.15;;;1.95;;
10497;SDS011;5296;51.060;13.750;2023-04-15T17:21:43;2.00;;;1.73;;
10497;SDS011;5296;51.060;13.750;2023-04-15T17:26:44;3.72;;;2.28;;
10497;SDS011;5296;51.060;13.750;2023-04-15T17:31:47;2.70;;;2.10;;
10497;SDS011;5296;51.060;13.750;2023-04-15T17:36:48;2.40;;;2.20;;
10497;SDS011;5296;51.060;13.750;2023-04-15T17:41:51;2.88;;;2.45;;
10497;SDS011;5296;51.060;13.750;2023-04-15T17:46:53;2.47;;;2.28;;
10497;SDS011;5296;51.060;13.750;2023-04-15T17:51:55;3.10;;;2.20;;
10497;SDS011;5296;51.060;13.750;2023-04-15T17:56:56;2.72;;;2.50;;
10497;SDS011;5296;51.060;13.750;2023-04-15T18:01:59;3.00;;;2.70;;
10497;SDS011;5296;51.060;13.750;2023-04-15T18:07:01;4.10;;;3.70;;
10497;SDS011;5296;51.060;13.750;2023-04-15T18:12:03;3.20;;;2.92;;
10497;SDS011;5296;51.060;13.750;2023-04-15T18:17:06;3.85;;;3.47;;
10497;SDS011;5296;51.060;13.750;2023-04-15T18:22:08;4.55;;;3.75;;
10497;SDS011;5296;51.060;13.750;2023-04-15T18:27:09;5.05;;;4.65;;
10497;SDS011;5296;51.060;13.750;2023-04-15T18:32:11;6.57;;;5.80;;
10497;SDS011;5296;51.060;13.750;2023-04-15T18:37:13;6.57;;;5.78;;
10497;SDS011;5296;51.060;13.750;2023-04-15T18:42:14;6.80;;;6.20;;
10497;SDS011;5296;51.060;13.750;2023-04-15T18:47:16;8.07;;;7.28;;
10497;SDS011;5296;51.060;13.750;2023-04-15T18:52:18;8.25;;;7.45;;
10497;SDS011;5296;51.060;13.750;2023-04-15T18:57:19;8.57;;;7.70;;
10497;SDS011;5296;51.060;13.750;2023-04-15T19:02:31;7.80;;;7.05;;
10497;SDS011;5296;51.060;13.750;2023-04-15T19:07:33;8.57;;;6.72;;
10497;SDS011;5296;51.060;13.750;2023-04-15T19:12:35;7.40;;;6.43;;
10497;SDS011;5296;51.060;13.750;2023-04-15T19:17:37;6.53;;;5.82;;
10497;SDS011;5296;51.060;13.750;2023-04-15T19:22:38;6.97;;;6.28;;
10497;SDS011;5296;51.060;13.750;2023-04-15T19:27:40;6.53;;;5.78;;
10497;SDS011;5296;51.060;13.750;2023-04-15T19:32:42;7.95;;;6.47;;
10497;SDS011;5296;51.060;13.750;2023-04-15T19:37:43;6.47;;;5.88;;
10497;SDS011;5296;51.060;13.750;2023-04-15T19:42:45;7.18;;;6.43;;
10497;SDS011;5296;51.060;13.750;2023-04-15T19:47:47;10.38;;;8.50;;
10497;SDS011;5296;51.060;13.750;2023-04-15T19:52:49;7.57;;;6.80;;
10497;SDS011;5296;51.060;13.750;2023-04-15T19:57:50;7.72;;;6.55;;
10497;SDS011;5296;51.060;13.750;2023-04-15T20:02:53;8.25;;;6.75;;
10497;SDS011;5296;51.060;13.750;2023-04-15T20:07:56;9.75;;;8.35;;
10497;SDS011;5296;51.060;13.750;2023-04-15T20:13:00;10.35;;;9.32;;
10497;SDS011;5296;51.060;13.750;2023-04-15T20:18:01;12.57;;;9.65;;
10497;SDS011;5296;51.060;13.750;2023-04-15T20:23:03;10.43;;;9.15;;
10497;SDS011;5296;51.060;13.750;2023-04-15T20:28:05;10.07;;;9.18;;
10497;SDS011;5296;51.060;13.750;2023-04-15T20:33:06;10.18;;;9.18;;
10497;SDS011;5296;51.060;13.750;2023-04-15T20:38:08;10.05;;;9.15;;
10497;SDS011;5296;51.060;13.750;2023-04-15T20:43:10;10.10;;;9.10;;
10497;SDS011;5296;51.060;13.750;2023-04-15T20:48:13;10.15;;;9.20;;
10497;SDS011;5296;51.060;13.750;2023-04-15T20:53:15;11.05;;;9.68;;
10497;SDS011;5296;51.060;13.750;2023-04-15T20:58:16;10.18;;;9.18;;
10497;SDS011;5296;51.060;13.750;2023-04-15T21:03:18;10.77;;;9.68;;
10497;SDS011;5296;51.060;13.750;2023-04-15T21:08:20;10.18;;;9.27;;
10497;SDS011;5296;51.060;13.750;2023-04-15T21:13:29;11.70;;;10.45;;
10497;SDS011;5296;51.060;13.750;2023-04-15T21:18:31;9.35;;;8.55;;
10497;SDS011;5296;51.060;13.750;2023-04-15T21:23:32;8.10;;;7.30;;
10497;SDS011;5296;51.060;13.750;2023-04-15T21:28:36;8.02;;;7.22;;
10497;SDS011;5296;51.060;13.750;2023-04-15T21:33:39;6.85;;;5.72;;
10497;SDS011;5296;51.060;13.750;2023-04-15T21:38:41;6.82;;;6.03;;
10497;SDS011;5296;51.060;13.750;2023-04-15T21:43:42;6.60;;;6.00;;
10497;SDS011;5296;51.060;13.750;2023-04-15T21:48:44;6.38;;;5.78;;
10497;SDS011;5296;51.060;13.750;2023-04-15T21:53:46;7.00;;;5.80;;
10497;SDS011;5296;51.060;13.750;2023-04-15T21:58:48;6.55;;;5.90;;
10497;SDS011;5296;51.060;13.750;2023-04-15T22:03:50;6.75;;;6.05;;
10497;SDS011;5296;51.060;13.750;2023-04-15T22:08:53;7.65;;;6.38;;
10497;SDS011;5296;51.060;13.750;2023-04-15T22:14:12;7.68;;;6.40;;
10497;SDS011;5296;51.060;13.750;2023-04-15T22:19:15;6.43;;;5.82;;
10497;SDS011;5296;51.060;13.750;2023-04-15T22:24:16;6.57;;;5.97;;
10497;SDS011;5296;51.060;13.750;2023-04-15T22:29:38;7.00;;;6.28;;
10497;SDS011;5296;51.060;13.750;2023-04-15T22:34:39;7.82;;;6.85;;
10497;SDS011;5296;51.060;13.750;2023-04-15T22:39:41;7.93;;;6.28;;
10497;SDS011;5296;51.060;13.750;2023-04-15T22:44:43;7.30;;;6.43;;
10497;SDS011;5296;51.060;13.750;2023-04-15T22:49:44;5.55;;;5.00;;
10497;SDS011;5296;51.060;13.750;2023-04-15T22:54:46;8.23;;;5.97;;
10497;SDS011;5296;51.060;13.750;2023-04-15T22:59:48;6.57;;;6.00;;
10497;SDS011;5296;51.060;13.750;2023-04-15T23:04:49;6.10;;;5.20;;
10497;SDS011;5296;51.060;13.750;2023-04-15T23:09:51;5.07;;;4.57;;
10497;SDS011;5296;51.060;13.750;2023-04-15T23:14:53;4.93;;;4.43;;
10497;SDS011;5296;51.060;13.750;2023-04-15T23:19:54;5.15;;;4.25;;
10497;SDS011;5296;51.060;13.750;2023-04-15T23:24:56;4.85;;;4.30;;
10497;SDS011;5296;51.060;13.750;2023-04-15T23:29:58;6.75;;;5.15;;
10497;SDS011;5296;51.060;13.750;2023-04-15T23:34:59;6.80;;;6.20;;
10497;SDS011;5296;51.060;13.750;2023-04-15T23:40:01;7.20;;;6.38;;
10497;SDS011;5296;51.060;13.750;2023-04-15T23:45:03;7.50;;;6.70;;
10497;SDS011;5296;51.060;13.750;2023-04-15T23:50:07;8.05;;;7.10;;
10497;SDS011;5296;51.060;13.750;2023-04-15T23:55:09;8.05;;;7.25;;
